Time;durP1;ratioP1;P1;durP2;ratioP2;P2;SDS_P1;SDS_P2;PMS_P1;PMS_P2;Temp;Humidity;BMP_temperature;BMP_pressure;BME280_temperature;BME280_humidity;BME280_pressure;Samples;Min_cycle;Max_cycle;Signal;HPM_P1;HPM_P2
2023/11/09 00:01:05;;;;;;;6.03;3.92;;;;;;;;;;5099920;28;20505;-73
2023/11/09 00:03:51;;;;;;;4.85;4.00;;;;;;;;;;5116394;28;20055;-73
2023/11/09 00:06:36;;;;;;;5.07;3.58;;;;;;;;;;5102130;28;20027;-73
2023/11/09 00:09:22;;;;;;;5.65;3.85;;;;;;;;;;5101911;28;20020;-73
2023/11/09 00:12:07;;;;;;;4.95;4.20;;;;;;;;;;5115994;28;20023;-74
2023/11/09 00:14:53;;;;;;;5.80;4.15;;;;;;;;;;5120733;28;20012;-73
2023/11/09 00:17:39;;;;;;;5.70;4.13;;;;;;;;;;5115985;28;20455;-73
2023/11/09 00:20:26;;;;;;;5.45;4.20;;;;;;;;;;5115711;28;20034;-73
2023/11/09 00:23:11;;;;;;;4.80;3.70;;;;;;;;;;5115870;28;20039;-74
2023/11/09 00:25:58;;;;;;;4.95;4.05;;;;;;;;;;5101380;28;20321;-74
2023/11/09 00:28:46;;;;;;;6.10;3.95;;;;;;;;;;5116287;28;20026;-75
2023/11/09 00:31:31;;;;;;;5.90;4.50;;;;;;;;;;5099834;28;20452;-74
2023/11/09 00:34:17;;;;;;;6.50;4.25;;;;;;;;;;5122331;28;20020;-73
2023/11/09 00:37:04;;;;;;;5.78;4.60;;;;;;;;;;5130882;28;20153;-75
2023/11/09 00:39:50;;;;;;;7.00;4.40;;;;;;;;;;5131036;28;20019;-71
2023/11/09 00:42:35;;;;;;;5.45;4.25;;;;;;;;;;5114992;28;20019;-73
2023/11/09 00:45:21;;;;;;;7.63;4.40;;;;;;;;;;5129337;28;20035;-74
2023/11/09 00:48:06;;;;;;;7.13;4.22;;;;;;;;;;5121287;28;20024;-74
2023/11/09 00:50:53;;;;;;;5.82;4.40;;;;;;;;;;5129208;28;20166;-73
2023/11/09 00:53:39;;;;;;;6.45;4.57;;;;;;;;;;5115319;28;20475;-73
2023/11/09 00:56:24;;;;;;;6.75;5.05;;;;;;;;;;5113184;28;20022;-72
2023/11/09 00:59:10;;;;;;;5.53;4.43;;;;;;;;;;5130158;28;20340;-73
2023/11/09 01:01:55;;;;;;;5.85;4.22;;;;;;;;;;5115135;28;20043;-72
2023/11/09 01:04:41;;;;;;;7.03;4.70;;;;;;;;;;5114591;28;20019;-72
2023/11/09 01:07:27;;;;;;;6.45;4.60;;;;;;;;;;5106439;28;20030;-72
2023/11/09 01:10:13;;;;;;;7.50;5.25;;;;;;;;;;5118188;28;20011;-73
2023/11/09 01:12:58;;;;;;;7.13;5.10;;;;;;;;;;5115581;28;20059;-74
2023/11/09 01:15:44;;;;;;;6.45;4.90;;;;;;;;;;5115142;28;20051;-73
2023/11/09 01:18:30;;;;;;;6.32;4.93;;;;;;;;;;5120340;28;20440;-73
2023/11/09 01:21:16;;;;;;;6.10;4.88;;;;;;;;;;5118522;28;20095;-73
2023/11/09 01:24:01;;;;;;;6.57;4.80;;;;;;;;;;5116284;28;20028;-72
2023/11/09 01:26:47;;;;;;;6.43;4.60;;;;;;;;;;5121514;28;20035;-73
2023/11/09 01:29:33;;;;;;;6.45;4.60;;;;;;;;;;5120202;28;20045;-74
2023/11/09 01:32:19;;;;;;;8.02;4.60;;;;;;;;;;5110958;28;20459;-72
2023/11/09 01:35:05;;;;;;;6.05;4.63;;;;;;;;;;5127651;28;20053;-73
2023/11/09 01:37:51;;;;;;;5.63;4.72;;;;;;;;;;5129026;28;20391;-74
2023/11/09 01:40:38;;;;;;;5.10;4.60;;;;;;;;;;5128247;28;20419;-72
2023/11/09 01:43:25;;;;;;;7.63;4.70;;;;;;;;;;5110982;28;20034;-72
2023/11/09 01:46:11;;;;;;;6.47;4.50;;;;;;;;;;5125127;28;20026;-74
2023/11/09 01:48:58;;;;;;;6.35;4.88;;;;;;;;;;5126271;28;20024;-74
2023/11/09 01:51:44;;;;;;;7.90;4.90;;;;;;;;;;5124783;28;20027;-73
2023/11/09 01:54:30;;;;;;;6.90;4.78;;;;;;;;;;5122485;28;20425;-72
2023/11/09 01:57:18;;;;;;;8.27;4.63;;;;;;;;;;5106747;28;20026;-75
2023/11/09 02:00:06;;;;;;;6.53;4.28;;;;;;;;;;5103406;28;20020;-72
2023/11/09 02:02:52;;;;;;;8.90;5.45;;;;;;;;;;5105466;28;20114;-74
2023/11/09 02:05:38;;;;;;;6.65;4.60;;;;;;;;;;5121006;28;20055;-73
2023/11/09 02:08:24;;;;;;;6.97;4.55;;;;;;;;;;5112368;28;20061;-72
2023/11/09 02:11:09;;;;;;;6.03;4.85;;;;;;;;;;5120667;28;20020;-72
2023/11/09 02:13:55;;;;;;;6.07;4.75;;;;;;;;;;5117289;28;20024;-73
2023/11/09 02:16:40;;;;;;;6.18;4.78;;;;;;;;;;5115855;28;20085;-74
2023/11/09 02:19:28;;;;;;;7.60;5.03;;;;;;;;;;5113355;28;20016;-74
2023/11/09 02:22:15;;;;;;;8.07;5.30;;;;;;;;;;5097961;28;20027;-74
2023/11/09 02:25:00;;;;;;;8.75;5.07;;;;;;;;;;5113043;28;20475;-73
2023/11/09 02:27:46;;;;;;;7.28;5.57;;;;;;;;;;5113294;28;20035;-75
2023/11/09 02:30:32;;;;;;;7.10;4.82;;;;;;;;;;5098028;28;20015;-74
2023/11/09 02:33:17;;;;;;;9.25;4.72;;;;;;;;;;5114226;28;20019;-74
2023/11/09 02:36:03;;;;;;;6.07;4.63;;;;;;;;;;5098210;28;20022;-74
2023/11/09 02:38:49;;;;;;;6.53;4.78;;;;;;;;;;5116139;28;20096;-74
2023/11/09 02:41:34;;;;;;;6.82;5.03;;;;;;;;;;5119924;28;20083;-73
2023/11/09 02:44:20;;;;;;;7.18;4.72;;;;;;;;;;5102010;28;20019;-74
2023/11/09 02:47:06;;;;;;;7.88;4.90;;;;;;;;;;5118576;28;20157;-73
2023/11/09 02:49:51;;;;;;;7.72;5.10;;;;;;;;;;5117345;28;20475;-75
2023/11/09 02:52:38;;;;;;;8.98;4.90;;;;;;;;;;5117733;28;20019;-74
2023/11/09 02:55:23;;;;;;;5.75;4.55;;;;;;;;;;5116369;28;20047;-74
2023/11/09 02:58:09;;;;;;;6.88;4.78;;;;;;;;;;5117526;28;20012;-73
2023/11/09 03:00:54;;;;;;;6.68;4.70;;;;;;;;;;5117498;28;20011;-75
2023/11/09 03:03:40;;;;;;;5.85;4.68;;;;;;;;;;5117136;28;20029;-75
2023/11/09 03:06:27;;;;;;;6.22;4.40;;;;;;;;;;5102895;28;20047;-74
2023/11/09 03:09:14;;;;;;;6.60;4.80;;;;;;;;;;5102847;28;20042;-74
2023/11/09 03:11:59;;;;;;;6.45;4.72;;;;;;;;;;5116718;28;20020;-74
2023/11/09 03:14:45;;;;;;;5.45;4.45;;;;;;;;;;5117119;28;20427;-74
2023/11/09 03:17:32;;;;;;;6.60;4.95;;;;;;;;;;5102961;28;20023;-73
2023/11/09 03:20:18;;;;;;;6.00;4.90;;;;;;;;;;5117247;28;20019;-74
2023/11/09 03:23:04;;;;;;;5.85;4.22;;;;;;;;;;5115870;28;20015;-74
2023/11/09 03:25:50;;;;;;;7.32;5.13;;;;;;;;;;5102022;28;20073;-75
2023/11/09 03:28:38;;;;;;;5.63;4.55;;;;;;;;;;5118952;27;20038;-74
2023/11/09 03:31:24;;;;;;;15.45;5.10;;;;;;;;;;5101697;28;20031;-73
2023/11/09 03:34:11;;;;;;;7.03;4.88;;;;;;;;;;5115820;28;20019;-73
2023/11/09 03:36:56;;;;;;;5.93;4.50;;;;;;;;;;5117069;28;20094;-75
2023/11/09 03:39:42;;;;;;;8.45;4.82;;;;;;;;;;5116668;28;20092;-75
2023/11/09 03:42:27;;;;;;;6.78;4.60;;;;;;;;;;5101468;28;20369;-74
2023/11/09 03:45:13;;;;;;;7.03;4.55;;;;;;;;;;5115966;28;20019;-75
2023/11/09 03:47:59;;;;;;;6.53;4.32;;;;;;;;;;5116161;28;20026;-75
2023/11/09 03:50:45;;;;;;;6.32;4.90;;;;;;;;;;5115827;28;20356;-75
2023/11/09 03:53:30;;;;;;;7.05;4.30;;;;;;;;;;5115769;28;20110;-74
2023/11/09 03:56:16;;;;;;;5.45;4.25;;;;;;;;;;5116848;28;20094;-75
2023/11/09 03:59:02;;;;;;;7.53;5.07;;;;;;;;;;5101875;28;20020;-73
2023/11/09 04:01:48;;;;;;;5.95;4.30;;;;;;;;;;5101734;28;20020;-74
2023/11/09 04:04:33;;;;;;;5.05;4.28;;;;;;;;;;5116888;28;20497;-74
2023/11/09 04:07:19;;;;;;;7.72;4.63;;;;;;;;;;5100693;28;20038;-73
2023/11/09 04:10:06;;;;;;;7.05;4.90;;;;;;;;;;5116017;28;20027;-74
2023/11/09 04:12:51;;;;;;;8.85;4.57;;;;;;;;;;5117574;28;20027;-73
2023/11/09 04:15:37;;;;;;;6.38;4.30;;;;;;;;;;5101411;28;20085;-73
2023/11/09 04:18:22;;;;;;;6.63;4.70;;;;;;;;;;5115954;28;20026;-74
2023/11/09 04:21:09;;;;;;;7.68;4.65;;;;;;;;;;5115910;28;20089;-73
2023/11/09 04:23:55;;;;;;;5.03;4.28;;;;;;;;;;5115641;28;20037;-74
2023/11/09 04:26:42;;;;;;;6.70;4.35;;;;;;;;;;5114433;28;20093;-73
2023/11/09 04:29:27;;;;;;;8.07;4.80;;;;;;;;;;5116036;28;20024;-74
2023/11/09 04:32:13;;;;;;;8.00;4.55;;;;;;;;;;5114180;28;20019;-73
2023/11/09 04:34:59;;;;;;;6.15;4.55;;;;;;;;;;5115224;28;20051;-74
2023/11/09 04:37:45;;;;;;;5.45;4.25;;;;;;;;;;5115747;28;20513;-75
2023/11/09 04:40:30;;;;;;;7.90;4.45;;;;;;;;;;5101329;28;20054;-73
2023/11/09 04:43:17;;;;;;;8.23;4.40;;;;;;;;;;5116400;28;20020;-73
2023/11/09 04:46:10;;;;;;;6.00;4.00;;;;;;;;;;5115530;28;20443;-74
2023/11/09 04:48:57;;;;;;;7.95;4.60;;;;;;;;;;5115106;28;20107;-74
2023/11/09 04:51:45;;;;;;;6.30;4.20;;;;;;;;;;5099055;28;20047;-76
2023/11/09 04:54:44;;;;;;;6.18;4.00;;;;;;;;;;5101012;28;20040;-75
2023/11/09 05:06:48;;;;;;;6.45;4.00;;;;;;;;;;5114262;28;20026;-75
2023/11/09 05:09:34;;;;;;;9.32;4.05;;;;;;;;;;5114449;28;20020;-75
2023/11/09 05:12:20;;;;;;;8.30;3.97;;;;;;;;;;5115137;28;20130;-76
2023/11/09 05:15:06;;;;;;;5.97;4.20;;;;;;;;;;5115395;28;20043;-74
2023/11/09 05:17:51;;;;;;;6.22;4.05;;;;;;;;;;5100774;28;20110;-75
2023/11/09 05:20:37;;;;;;;6.45;4.55;;;;;;;;;;5114761;28;20015;-74
2023/11/09 05:23:23;;;;;;;10.65;4.60;;;;;;;;;;5114539;28;20181;-75
2023/11/09 05:26:09;;;;;;;9.07;4.65;;;;;;;;;;5098758;28;20019;-76
2023/11/09 05:28:55;;;;;;;7.78;4.88;;;;;;;;;;5114438;28;20024;-72
2023/11/09 05:31:42;;;;;;;7.75;4.65;;;;;;;;;;5098214;28;20023;-73
2023/11/09 05:34:28;;;;;;;7.18;4.78;;;;;;;;;;5113311;28;20076;-71
2023/11/09 05:37:13;;;;;;;11.10;5.10;;;;;;;;;;5114138;28;20027;-74
2023/11/09 05:39:59;;;;;;;8.45;5.20;;;;;;;;;;5113070;28;20407;-74
2023/11/09 05:42:44;;;;;;;8.75;5.43;;;;;;;;;;5114677;28;20023;-75
2023/11/09 05:45:30;;;;;;;11.02;5.45;;;;;;;;;;5114719;28;20039;-75
2023/11/09 05:48:16;;;;;;;7.43;5.22;;;;;;;;;;5114555;28;20027;-73
2023/11/09 05:51:02;;;;;;;9.35;5.47;;;;;;;;;;5099143;28;20319;-73
2023/11/09 05:53:51;;;;;;;12.98;5.45;;;;;;;;;;5113816;28;20429;-75
2023/11/09 05:56:36;;;;;;;8.57;4.82;;;;;;;;;;5099263;28;20348;-77
2023/11/09 05:59:23;;;;;;;12.82;5.00;;;;;;;;;;5099881;28;20043;-75
2023/11/09 06:02:11;;;;;;;11.15;4.95;;;;;;;;;;5099709;28;20020;-76
2023/11/09 06:04:57;;;;;;;6.05;4.35;;;;;;;;;;5098510;28;20023;-75
2023/11/09 06:07:42;;;;;;;6.78;4.10;;;;;;;;;;5114005;28;20463;-76
2023/11/09 06:10:29;;;;;;;6.05;3.78;;;;;;;;;;5112896;28;20015;-74
2023/11/09 06:13:15;;;;;;;5.47;3.78;;;;;;;;;;5116315;28;20435;-73
2023/11/09 06:16:02;;;;;;;5.28;3.67;;;;;;;;;;5116989;28;20372;-74
2023/11/09 06:18:48;;;;;;;5.28;4.03;;;;;;;;;;5104534;28;20043;-74
2023/11/09 06:21:34;;;;;;;5.25;4.07;;;;;;;;;;5103367;28;20408;-74
2023/11/09 06:24:20;;;;;;;6.22;3.80;;;;;;;;;;5119050;28;20083;-74
2023/11/09 06:27:08;;;;;;;6.55;4.60;;;;;;;;;;5103047;28;20024;-75
2023/11/09 06:29:54;;;;;;;7.20;4.25;;;;;;;;;;5118043;28;20059;-74
2023/11/09 06:32:40;;;;;;;8.68;4.30;;;;;;;;;;5116389;28;20110;-73
2023/11/09 06:35:26;;;;;;;5.80;3.70;;;;;;;;;;5119046;28;20107;-73
2023/11/09 06:38:13;;;;;;;8.02;3.90;;;;;;;;;;5117566;28;20056;-74
2023/11/09 06:40:58;;;;;;;5.18;4.00;;;;;;;;;;5117104;28;20411;-74
2023/11/09 06:43:44;;;;;;;7.07;3.78;;;;;;;;;;5103327;28;20023;-74
2023/11/09 06:46:30;;;;;;;8.30;4.10;;;;;;;;;;5117895;28;20359;-74
2023/11/09 06:49:17;;;;;;;4.68;3.40;;;;;;;;;;5102950;28;20034;-75
2023/11/09 06:52:04;;;;;;;9.27;4.50;;;;;;;;;;5117786;28;20411;-75
2023/11/09 06:54:49;;;;;;;7.65;3.33;;;;;;;;;;5117538;28;20113;-73
2023/11/09 06:57:35;;;;;;;7.00;3.50;;;;;;;;;;5117914;28;20011;-72
2023/11/09 07:00:22;;;;;;;5.97;3.78;;;;;;;;;;5117242;28;20023;-71
2023/11/09 07:03:09;;;;;;;6.40;3.30;;;;;;;;;;5101958;28;20112;-72
2023/11/09 07:05:55;;;;;;;5.22;3.55;;;;;;;;;;5102686;28;20099;-72
2023/11/09 07:08:41;;;;;;;4.18;3.30;;;;;;;;;;5117502;28;20518;-71
2023/11/09 07:11:26;;;;;;;5.93;4.10;;;;;;;;;;5102349;28;20110;-71
2023/11/09 07:14:15;;;;;;;5.40;3.45;;;;;;;;;;5117253;28;20035;-71
2023/11/09 07:17:01;;;;;;;4.93;3.45;;;;;;;;;;5117204;28;20069;-71
2023/11/09 07:19:49;;;;;;;5.13;3.40;;;;;;;;;;5117227;28;20016;-70
2023/11/09 07:22:35;;;;;;;6.07;3.95;;;;;;;;;;5116284;28;20108;-71
2023/11/09 07:25:20;;;;;;;5.75;3.50;;;;;;;;;;5116018;28;20023;-72
2023/11/09 07:28:08;;;;;;;9.55;3.92;;;;;;;;;;5101995;28;20055;-71
2023/11/09 07:30:54;;;;;;;8.93;3.78;;;;;;;;;;5101665;28;20050;-72
2023/11/09 07:33:39;;;;;;;8.18;3.95;;;;;;;;;;5100694;28;20032;-72
2023/11/09 07:36:25;;;;;;;6.00;3.75;;;;;;;;;;5100416;28;20027;-72
2023/11/09 07:39:11;;;;;;;5.78;3.72;;;;;;;;;;5101930;28;20027;-73
2023/11/09 07:42:00;;;;;;;8.63;3.65;;;;;;;;;;5116647;28;20020;-71
2023/11/09 07:44:45;;;;;;;14.23;3.80;;;;;;;;;;5115326;28;20440;-71
2023/11/09 07:47:31;;;;;;;4.97;3.58;;;;;;;;;;5100952;28;20035;-72
2023/11/09 07:50:17;;;;;;;5.15;3.80;;;;;;;;;;5101837;28;20024;-72
2023/11/09 07:53:02;;;;;;;8.10;3.78;;;;;;;;;;5100173;28;20015;-72
2023/11/09 07:55:50;;;;;;;4.40;3.55;;;;;;;;;;5117219;28;20586;-70
2023/11/09 07:58:36;;;;;;;4.93;3.53;;;;;;;;;;5100922;28;20047;-72
2023/11/09 08:01:22;;;;;;;9.82;3.78;;;;;;;;;;5115914;28;20030;-73
2023/11/09 08:04:08;;;;;;;7.10;3.88;;;;;;;;;;5116342;28;20093;-71
2023/11/09 08:06:54;;;;;;;5.40;3.75;;;;;;;;;;5117220;28;20031;-69
2023/11/09 08:09:40;;;;;;;13.50;3.65;;;;;;;;;;5102177;28;20364;-71
2023/11/09 08:12:26;;;;;;;5.28;3.50;;;;;;;;;;5115901;28;20080;-71
2023/11/09 08:15:13;;;;;;;5.65;3.45;;;;;;;;;;5116086;28;20012;-71
2023/11/09 08:17:59;;;;;;;4.60;3.28;;;;;;;;;;5116948;28;20458;-72
2023/11/09 08:20:44;;;;;;;6.80;4.00;;;;;;;;;;5116267;28;20067;-70
2023/11/09 08:23:31;;;;;;;6.03;3.50;;;;;;;;;;5115505;28;20019;-71
2023/11/09 08:26:17;;;;;;;5.97;3.80;;;;;;;;;;5115220;28;20023;-71
2023/11/09 08:29:04;;;;;;;5.53;4.00;;;;;;;;;;5102115;28;20023;-70
2023/11/09 08:31:51;;;;;;;6.63;4.18;;;;;;;;;;5100513;28;20028;-72
2023/11/09 08:34:36;;;;;;;6.50;4.32;;;;;;;;;;5115171;28;20015;-73
2023/11/09 08:37:22;;;;;;;6.93;3.90;;;;;;;;;;5099331;28;20019;-71
2023/11/09 08:40:18;;;;;;;8.57;4.05;;;;;;;;;;5116424;28;20031;-70
2023/11/09 08:43:05;;;;;;;5.85;3.67;;;;;;;;;;5115494;28;20031;-73
2023/11/09 08:45:50;;;;;;;6.18;4.00;;;;;;;;;;5114638;28;20038;-73
2023/11/09 08:48:37;;;;;;;5.32;3.58;;;;;;;;;;5114361;28;20023;-72
2023/11/09 08:51:22;;;;;;;6.32;3.90;;;;;;;;;;5098743;28;20062;-72
2023/11/09 08:54:10;;;;;;;7.05;4.30;;;;;;;;;;5114411;28;20048;-72
2023/11/09 08:56:56;;;;;;;10.05;4.32;;;;;;;;;;5115099;28;20027;-71
2023/11/09 08:59:42;;;;;;;5.50;3.65;;;;;;;;;;5099070;28;20103;-72
2023/11/09 09:02:31;;;;;;;10.02;4.10;;;;;;;;;;5098908;28;20062;-71
2023/11/09 09:05:18;;;;;;;4.88;3.28;;;;;;;;;;5099248;28;20019;-72
2023/11/09 09:08:04;;;;;;;10.60;3.97;;;;;;;;;;5115505;28;20197;-72
2023/11/09 09:10:49;;;;;;;7.07;3.83;;;;;;;;;;5114562;28;20023;-71
2023/11/09 09:13:35;;;;;;;5.93;3.58;;;;;;;;;;5114767;28;20031;-71
2023/11/09 09:16:21;;;;;;;10.13;3.40;;;;;;;;;;5114056;28;20402;-72
2023/11/09 09:19:08;;;;;;;6.20;3.85;;;;;;;;;;5114941;28;20023;-72
2023/11/09 09:21:54;;;;;;;5.22;3.78;;;;;;;;;;5113432;28;20016;-72
2023/11/09 09:24:40;;;;;;;7.60;4.03;;;;;;;;;;5099764;28;20023;-71
2023/11/09 09:27:26;;;;;;;3.88;3.40;;;;;;;;;;5114781;28;20356;-71
2023/11/09 09:30:13;;;;;;;5.53;3.38;;;;;;;;;;5114454;28;20359;-70
2023/11/09 09:32:59;;;;;;;8.32;4.03;;;;;;;;;;5114223;28;20023;-71
2023/11/09 09:35:46;;;;;;;4.57;3.85;;;;;;;;;;5098307;28;20432;-72
2023/11/09 09:38:34;;;;;;;7.68;4.03;;;;;;;;;;5114575;28;20428;-72
2023/11/09 09:41:26;;;;;;;5.35;3.80;;;;;;;;;;5098389;28;20016;-72
2023/11/09 09:44:12;;;;;;;9.73;4.00;;;;;;;;;;5114192;28;20019;-72
2023/11/09 09:46:59;;;;;;;5.72;4.25;;;;;;;;;;5114358;28;20107;-71
2023/11/09 09:49:46;;;;;;;7.57;3.85;;;;;;;;;;5112908;28;20023;-73
2023/11/09 09:52:32;;;;;;;7.65;4.30;;;;;;;;;;5114252;28;20012;-72
2023/11/09 09:55:21;;;;;;;6.43;4.00;;;;;;;;;;5113790;28;20050;-71
2023/11/09 09:58:08;;;;;;;7.05;3.83;;;;;;;;;;5113914;28;20022;-71
2023/11/09 10:00:54;;;;;;;5.85;3.72;;;;;;;;;;5099747;28;20034;-71
2023/11/09 10:03:40;;;;;;;4.00;3.50;;;;;;;;;;5113067;28;20109;-71
2023/11/09 10:06:26;;;;;;;10.48;4.32;;;;;;;;;;5114833;28;20011;-71
2023/11/09 10:09:12;;;;;;;5.47;3.97;;;;;;;;;;5100071;28;20023;-71
2023/11/09 10:11:58;;;;;;;6.43;3.78;;;;;;;;;;5113986;28;20434;-71
2023/11/09 10:14:43;;;;;;;5.60;3.67;;;;;;;;;;5113904;28;20035;-71
2023/11/09 10:17:29;;;;;;;6.28;4.00;;;;;;;;;;5114148;28;20458;-71
2023/11/09 10:20:15;;;;;;;5.85;3.47;;;;;;;;;;5099349;28;20404;-72
2023/11/09 10:23:02;;;;;;;5.07;3.58;;;;;;;;;;5113419;28;20081;-71
2023/11/09 10:25:48;;;;;;;7.60;4.25;;;;;;;;;;5112909;28;20450;-73
2023/11/09 10:28:36;;;;;;;5.95;3.38;;;;;;;;;;5114250;28;20027;-71
2023/11/09 10:31:30;;;;;;;5.57;3.38;;;;;;;;;;5112335;28;20047;-71
2023/11/09 10:34:16;;;;;;;6.32;2.83;;;;;;;;;;5098035;28;20106;-72
2023/11/09 10:37:02;;;;;;;5.13;3.25;;;;;;;;;;5114034;28;20038;-70
2023/11/09 10:39:47;;;;;;;3.90;3.17;;;;;;;;;;5099709;28;20015;-71
2023/11/09 10:42:34;;;;;;;6.75;3.42;;;;;;;;;;5112974;28;20106;-72
2023/11/09 10:45:22;;;;;;;5.50;3.20;;;;;;;;;;5098665;28;20030;-72
2023/11/09 10:48:08;;;;;;;4.88;3.40;;;;;;;;;;5097992;28;20023;-72
2023/11/09 10:50:55;;;;;;;6.78;3.60;;;;;;;;;;5113567;28;20115;-71
2023/11/09 10:53:43;;;;;;;10.15;3.95;;;;;;;;;;5113800;28;20051;-70
2023/11/09 10:56:29;;;;;;;13.15;4.10;;;;;;;;;;5097835;28;20020;-72
2023/11/09 10:59:15;;;;;;;6.82;3.75;;;;;;;;;;5112965;28;20027;-71
2023/11/09 11:02:11;;;;;;;5.28;4.00;;;;;;;;;;5117462;28;20094;-72
2023/11/09 11:05:00;;;;;;;5.28;3.30;;;;;;;;;;5116245;28;20076;-72
2023/11/09 11:07:46;;;;;;;5.18;3.10;;;;;;;;;;5117483;28;20024;-71
2023/11/09 11:10:31;;;;;;;4.57;3.10;;;;;;;;;;5116235;28;20045;-72
2023/11/09 11:13:18;;;;;;;8.10;3.30;;;;;;;;;;5102936;28;20406;-72
2023/11/09 11:16:22;;;;;;;4.75;3.28;;;;;;;;;;5102900;28;20031;-72
2023/11/09 11:19:34;;;;;;;5.13;3.15;;;;;;;;;;5116473;28;20051;-72
2023/11/09 11:22:48;;;;;;;5.18;3.15;;;;;;;;;;5083505;28;20637;-73
2023/11/09 11:25:55;;;;;;;6.22;3.38;;;;;;;;;;5084415;28;20138;-73
2023/11/09 11:28:41;;;;;;;6.90;2.97;;;;;;;;;;5115827;28;20031;-71
2023/11/09 11:31:27;;;;;;;5.00;3.08;;;;;;;;;;5116444;28;20489;-72
2023/11/09 11:34:16;;;;;;;6.85;3.25;;;;;;;;;;5116868;28;20027;-72
2023/11/09 11:37:02;;;;;;;5.50;3.20;;;;;;;;;;5116698;28;20030;-71
2023/11/09 11:39:48;;;;;;;5.75;3.10;;;;;;;;;;5100767;28;20085;-71
2023/11/09 11:42:34;;;;;;;4.65;2.58;;;;;;;;;;5116281;28;20089;-71
2023/11/09 11:45:21;;;;;;;10.05;3.33;;;;;;;;;;5115372;28;20096;-73
2023/11/09 11:48:19;;;;;;;6.50;3.15;;;;;;;;;;5102203;28;20043;-72
2023/11/09 11:51:06;;;;;;;5.63;2.65;;;;;;;;;;5101900;28;20364;-73
2023/11/09 11:54:05;;;;;;;5.50;2.95;;;;;;;;;;5101968;28;20040;-72
2023/11/09 11:56:51;;;;;;;5.18;2.40;;;;;;;;;;5115357;28;20348;-72
2023/11/09 11:59:39;;;;;;;6.85;2.80;;;;;;;;;;5116101;28;20016;-72
2023/11/09 12:02:24;;;;;;;5.68;3.17;;;;;;;;;;5116994;28;20348;-72
2023/11/09 12:05:10;;;;;;;3.38;2.65;;;;;;;;;;5116417;28;20020;-72
2023/11/09 12:07:59;;;;;;;3.95;2.70;;;;;;;;;;5115302;28;20015;-72
2023/11/09 12:10:45;;;;;;;3.95;2.50;;;;;;;;;;5116171;28;20189;-71
2023/11/09 12:13:34;;;;;;;4.43;2.60;;;;;;;;;;5115968;28;20055;-71
2023/11/09 12:16:22;;;;;;;7.75;2.70;;;;;;;;;;5116905;28;20024;-71
2023/11/09 12:19:11;;;;;;;5.57;2.78;;;;;;;;;;5116415;28;20085;-72
2023/11/09 12:21:57;;;;;;;3.55;2.47;;;;;;;;;;5101282;28;20089;-71
2023/11/09 12:24:44;;;;;;;5.63;2.33;;;;;;;;;;5115424;28;20348;-72
2023/11/09 12:27:31;;;;;;;8.07;2.55;;;;;;;;;;5115725;28;20077;-71
2023/11/09 12:30:17;;;;;;;3.13;2.70;;;;;;;;;;5114409;28;20035;-71
2023/11/09 12:33:02;;;;;;;4.53;2.50;;;;;;;;;;5115439;28;20427;-71
2023/11/09 12:35:57;;;;;;;4.95;2.50;;;;;;;;;;5116119;28;20024;-71
2023/11/09 12:38:43;;;;;;;6.03;2.22;;;;;;;;;;5114738;28;20033;-72
2023/11/09 12:41:32;;;;;;;3.92;2.03;;;;;;;;;;5115592;28;20102;-72
2023/11/09 12:44:24;;;;;;;2.70;1.92;;;;;;;;;;5114529;28;20023;-72
2023/11/09 12:47:11;;;;;;;4.63;2.08;;;;;;;;;;5100626;28;20458;-71
2023/11/09 12:50:04;;;;;;;7.20;2.65;;;;;;;;;;5099517;28;20440;-71
2023/11/09 12:52:54;;;;;;;3.90;2.03;;;;;;;;;;5100673;28;20455;-72
2023/11/09 12:55:39;;;;;;;7.35;2.20;;;;;;;;;;5100004;28;20120;-71
2023/11/09 12:58:27;;;;;;;8.07;2.08;;;;;;;;;;5115353;28;20039;-72
2023/11/09 13:01:16;;;;;;;5.78;2.70;;;;;;;;;;5114869;28;20364;-71
2023/11/09 13:04:02;;;;;;;4.22;2.75;;;;;;;;;;5100388;28;20024;-71
2023/11/09 13:06:48;;;;;;;8.20;2.95;;;;;;;;;;5114453;28;20478;-72
2023/11/09 13:09:38;;;;;;;4.50;1.90;;;;;;;;;;5114138;28;20024;-71
2023/11/09 13:12:32;;;;;;;7.57;2.65;;;;;;;;;;5114518;28;20452;-72
2023/11/09 13:18:07;;;;;;;14.15;2.50;;;;;;;;;;5114029;28;20397;-71
2023/11/09 13:20:54;;;;;;;4.45;2.03;;;;;;;;;;5109013;28;20436;-71
2023/11/09 13:23:43;;;;;;;3.55;2.20;;;;;;;;;;5119508;27;20032;-71
2023/11/09 13:26:28;;;;;;;4.03;2.08;;;;;;;;;;5114989;28;20440;-72
2023/11/09 13:29:14;;;;;;;3.90;2.10;;;;;;;;;;5095402;28;20032;-72
2023/11/09 13:32:00;;;;;;;20.27;3.30;;;;;;;;;;5079474;28;20452;-72
2023/11/09 13:34:58;;;;;;;3.45;1.95;;;;;;;;;;5080245;28;20021;-72
2023/11/09 13:37:48;;;;;;;4.05;2.05;;;;;;;;;;5079527;28;20095;-72
2023/11/09 13:40:39;;;;;;;9.88;2.70;;;;;;;;;;5094874;28;20019;-73
2023/11/09 13:43:28;;;;;;;9.50;2.65;;;;;;;;;;5114740;28;20019;-73
2023/11/09 13:46:14;;;;;;;4.72;2.20;;;;;;;;;;5113402;28;20024;-72
2023/11/09 13:54:47;;;;;;;3.78;1.92;;;;;;;;;;5114240;28;20448;-71
2023/11/09 13:57:40;;;;;;;3.10;1.67;;;;;;;;;;5113178;28;20019;-71
2023/11/09 14:00:36;;;;;;;7.28;2.78;;;;;;;;;;5114203;28;20062;-71
2023/11/09 14:03:22;;;;;;;5.22;2.40;;;;;;;;;;5099230;28;20069;-71
2023/11/09 14:06:12;;;;;;;5.78;3.00;;;;;;;;;;5114492;28;20141;-71
2023/11/09 14:08:58;;;;;;;5.22;2.33;;;;;;;;;;5114243;28;20077;-71
2023/11/09 14:11:57;;;;;;;2.75;2.03;;;;;;;;;;5114714;28;20048;-71
2023/11/09 14:14:48;;;;;;;8.45;2.33;;;;;;;;;;5099644;28;20115;-70
2023/11/09 14:17:34;;;;;;;13.20;2.50;;;;;;;;;;5114380;28;20016;-70
2023/11/09 14:20:51;;;;;;;5.25;2.10;;;;;;;;;;5099269;28;20380;-70
2023/11/09 14:23:26;;;;;;;24.48;2.60;;;;;;;;;;5114016;28;20030;-72
2023/11/09 14:26:12;;;;;;;31.38;3.42;;;;;;;;;;5099321;28;20050;-72
2023/11/09 14:29:08;;;;;;;12.18;2.58;;;;;;;;;;5098587;28;20592;-71
2023/11/09 14:31:55;;;;;;;6.30;2.13;;;;;;;;;;5099870;28;20027;-72
2023/11/09 14:34:41;;;;;;;32.17;3.85;;;;;;;;;;5115450;28;20027;-72
2023/11/09 14:37:27;;;;;;;19.35;3.28;;;;;;;;;;5117565;28;20073;-72
2023/11/09 14:40:19;;;;;;;19.67;3.13;;;;;;;;;;5116529;28;20011;-73
2023/11/09 14:43:08;;;;;;;11.15;3.03;;;;;;;;;;5115921;28;20020;-71
2023/11/09 14:45:56;;;;;;;23.35;3.50;;;;;;;;;;5103968;28;20019;-71
2023/11/09 14:48:41;;;;;;;15.93;3.70;;;;;;;;;;5116089;28;20066;-71
2023/11/09 14:51:28;;;;;;;7.30;2.55;;;;;;;;;;5116940;28;20337;-72
2023/11/09 14:54:14;;;;;;;41.97;5.60;;;;;;;;;;5101860;28;20118;-71
2023/11/09 14:56:59;;;;;;;29.75;4.57;;;;;;;;;;5117087;27;20043;-72
2023/11/09 14:59:46;;;;;;;43.10;6.15;;;;;;;;;;5118269;28;20083;-73
2023/11/09 15:02:31;;;;;;;22.50;4.95;;;;;;;;;;5116987;28;20055;-71
2023/11/09 15:05:22;;;;;;;21.45;4.20;;;;;;;;;;5117818;28;20018;-72
2023/11/09 15:08:09;;;;;;;23.60;6.95;;;;;;;;;;5116994;28;20023;-73
2023/11/09 15:10:56;;;;;;;31.20;7.43;;;;;;;;;;5117302;28;20047;-72
2023/11/09 15:13:46;;;;;;;31.75;7.00;;;;;;;;;;5117070;28;20020;-71
2023/11/09 15:16:32;;;;;;;27.85;7.10;;;;;;;;;;5117166;28;20027;-72
2023/11/09 15:19:18;;;;;;;24.10;6.75;;;;;;;;;;5117746;28;20019;-71
2023/11/09 15:22:07;;;;;;;38.78;7.05;;;;;;;;;;5118143;28;20436;-72
2023/11/09 15:24:54;;;;;;;36.97;7.25;;;;;;;;;;5116547;28;20028;-72
2023/11/09 15:27:42;;;;;;;44.08;9.05;;;;;;;;;;5116734;28;20031;-72
2023/11/09 15:30:29;;;;;;;30.23;8.23;;;;;;;;;;5116559;28;20023;-71
2023/11/09 15:33:15;;;;;;;38.38;11.13;;;;;;;;;;5118503;27;20020;-71
2023/11/09 15:36:01;;;;;;;45.97;11.18;;;;;;;;;;5101578;28;20016;-70
2023/11/09 15:38:49;;;;;;;30.52;11.10;;;;;;;;;;5102062;28;20019;-69
2023/11/09 15:41:34;;;;;;;21.60;10.68;;;;;;;;;;5116669;28;20020;-68
2023/11/09 15:44:20;;;;;;;35.55;11.48;;;;;;;;;;5116559;28;20362;-71
2023/11/09 15:47:08;;;;;;;42.08;14.85;;;;;;;;;;5101417;28;20042;-70
2023/11/09 15:49:57;;;;;;;34.53;14.25;;;;;;;;;;5101721;28;20019;-70
2023/11/09 15:52:44;;;;;;;66.88;17.77;;;;;;;;;;5115969;28;20352;-70
2023/11/09 15:55:29;;;;;;;59.22;19.08;;;;;;;;;;5116054;28;20486;-70
2023/11/09 15:58:17;;;;;;;43.85;17.77;;;;;;;;;;5101845;28;20038;-72
2023/11/09 16:01:03;;;;;;;36.72;16.73;;;;;;;;;;5115762;28;20106;-71
2023/11/09 16:03:52;;;;;;;57.08;16.60;;;;;;;;;;5101369;28;20027;-71
2023/11/09 16:06:39;;;;;;;44.15;17.67;;;;;;;;;;5116070;28;20055;-70
2023/11/09 16:09:27;;;;;;;57.10;24.67;;;;;;;;;;5115286;28;20027;-73
2023/11/09 16:12:13;;;;;;;65.45;26.95;;;;;;;;;;5116327;28;20019;-73
2023/11/09 16:14:58;;;;;;;69.28;32.65;;;;;;;;;;5114925;28;20094;-72
2023/11/09 16:17:45;;;;;;;54.20;26.52;;;;;;;;;;5080215;28;20052;-68
2023/11/09 16:20:33;;;;;;;57.28;28.05;;;;;;;;;;5096888;28;20387;-71
2023/11/09 16:23:20;;;;;;;60.38;26.95;;;;;;;;;;5082071;28;20020;-70
2023/11/09 16:26:06;;;;;;;50.88;22.80;;;;;;;;;;5080699;28;20457;-69
2023/11/09 16:28:56;;;;;;;73.55;27.77;;;;;;;;;;5096392;28;20039;-68
2023/11/09 16:31:42;;;;;;;48.72;24.83;;;;;;;;;;5094667;28;20043;-69
2023/11/09 16:34:28;;;;;;;45.28;21.63;;;;;;;;;;5096180;28;20055;-68
2023/11/09 16:37:13;;;;;;;71.05;24.52;;;;;;;;;;5095130;28;20031;-71
2023/11/09 16:39:59;;;;;;;55.03;20.48;;;;;;;;;;5095716;28;20058;-70
2023/11/09 16:42:46;;;;;;;44.20;19.95;;;;;;;;;;5095445;28;20024;-70
2023/11/09 16:45:31;;;;;;;39.97;18.48;;;;;;;;;;5095297;28;20387;-70
2023/11/09 16:48:17;;;;;;;45.58;20.60;;;;;;;;;;5081572;28;20437;-71
2023/11/09 16:51:03;;;;;;;49.47;22.60;;;;;;;;;;5110077;28;20012;-69
2023/11/09 16:53:49;;;;;;;49.78;24.08;;;;;;;;;;5113742;28;20044;-70